Time;durP1;ratioP1;P1;durP2;ratioP2;P2;SDS_P1;SDS_P2;PMS_P1;PMS_P2;Temp;Humidity;BMP_temperature;BMP_pressure;BME280_temperature;BME280_humidity;BME280_pressure;Samples;Min_cycle;Max_cycle;Signal;HPM_P1;HPM_P2
2023/10/19 00:01:27;;;;;;;16.10;12.87;;;11.10;99.90;;;;;;5034501;28;20569;-71
2023/10/19 00:03:55;;;;;;;16.93;13.47;;;11.10;99.90;;;;;;5033768;28;20627;-71
2023/10/19 00:06:23;;;;;;;17.10;13.37;;;11.10;99.90;;;;;;5033834;28;20211;-72
2023/10/19 00:08:50;;;;;;;17.67;13.40;;;11.10;99.90;;;;;;5034529;28;20234;-71
2023/10/19 00:11:24;;;;;;;23.20;14.13;;;11.20;99.90;;;;;;5034252;28;20195;-71
2023/10/19 00:13:57;;;;;;;18.77;13.43;;;11.20;99.90;;;;;;5033968;28;20171;-71
2023/10/19 00:16:28;;;;;;;16.93;13.87;;;11.20;99.90;;;;;;5034082;28;20194;-72
2023/10/19 00:18:55;;;;;;;19.67;13.93;;;11.30;99.90;;;;;;5034333;28;20195;-72
2023/10/19 00:21:23;;;;;;;19.63;14.17;;;11.30;99.90;;;;;;5034384;28;20215;-71
2023/10/19 00:23:55;;;;;;;21.17;15.30;;;11.30;99.90;;;;;;5033907;28;20202;-71
2023/10/19 00:26:20;;;;;;;18.53;14.63;;;11.40;99.90;;;;;;5000966;28;20260;-71
2023/10/19 00:28:52;;;;;;;19.43;14.70;;;11.40;99.90;;;;;;5034792;28;20175;-71
2023/10/19 00:31:20;;;;;;;20.07;15.37;;;11.50;99.90;;;;;;5016668;28;20198;-71
2023/10/19 00:33:45;;;;;;;18.77;14.10;;;11.40;99.90;;;;;;5033751;28;20659;-72
2023/10/19 00:36:14;;;;;;;18.80;15.70;;;11.40;99.90;;;;;;5033574;28;20219;-71
2023/10/19 00:38:52;;;;;;;19.57;15.53;;;11.40;99.90;;;;;;5033605;28;20262;-71
2023/10/19 00:41:21;;;;;;;21.53;16.03;;;11.40;99.90;;;;;;5033070;28;20203;-71
2023/10/19 00:43:49;;;;;;;20.27;15.67;;;11.50;99.90;;;;;;5015532;28;20203;-71
2023/10/19 00:48:46;;;;;;;21.13;15.77;;;11.50;99.90;;;;;;5033528;28;20176;-71
2023/10/19 00:54:10;;;;;;;21.03;15.23;;;11.50;99.90;;;;;;5032746;28;20172;-71
2023/10/19 00:56:37;;;;;;;18.30;15.17;;;11.50;99.90;;;;;;5033100;28;20187;-72
2023/10/19 00:59:19;;;;;;;19.23;15.40;;;11.50;99.90;;;;;;5033483;28;20171;-71
2023/10/19 01:01:48;;;;;;;21.80;15.63;;;11.60;99.90;;;;;;5033128;28;20350;-71
2023/10/19 01:04:15;;;;;;;24.33;16.23;;;11.60;99.90;;;;;;5032885;28;20167;-71
2023/10/19 01:06:44;;;;;;;20.00;16.37;;;11.60;99.90;;;;;;5033030;28;20245;-71
2023/10/19 01:09:17;;;;;;;22.23;16.53;;;11.60;99.90;;;;;;5032961;28;20542;-71
2023/10/19 01:11:49;;;;;;;19.30;14.57;;;11.60;99.90;;;;;;5032987;28;20187;-71
2023/10/19 01:14:23;;;;;;;22.00;14.70;;;11.70;99.90;;;;;;5032847;28;20175;-71
2023/10/19 01:16:51;;;;;;;22.23;15.63;;;11.70;99.90;;;;;;5015116;28;20562;-71
2023/10/19 01:19:18;;;;;;;26.17;16.70;;;11.60;99.90;;;;;;5032924;28;20305;-71
2023/10/19 01:21:52;;;;;;;21.77;16.47;;;11.70;99.90;;;;;;5032776;28;20194;-71
2023/10/19 01:24:39;;;;;;;22.63;16.10;;;11.70;99.90;;;;;;5032666;28;20242;-71
2023/10/19 01:27:08;;;;;;;20.90;15.87;;;11.70;99.90;;;;;;5015154;28;20203;-71
2023/10/19 01:29:35;;;;;;;18.07;15.10;;;11.80;99.90;;;;;;5032984;28;20262;-71
2023/10/19 01:32:07;;;;;;;18.53;16.07;;;11.80;99.90;;;;;;5032702;28;20215;-71
2023/10/19 01:34:35;;;;;;;21.90;15.53;;;11.80;99.90;;;;;;5032500;28;20179;-71
2023/10/19 01:37:04;;;;;;;21.63;16.00;;;11.80;99.90;;;;;;5032784;28;20176;-71
2023/10/19 01:39:39;;;;;;;21.97;16.90;;;11.80;99.90;;;;;;5032362;28;20549;-71
2023/10/19 01:42:05;;;;;;;21.67;15.97;;;11.80;99.90;;;;;;5031878;28;20685;-71
2023/10/19 01:44:31;;;;;;;20.33;16.90;;;11.90;99.90;;;;;;5014482;28;20204;-71
2023/10/19 01:46:57;;;;;;;22.10;17.07;;;11.90;99.90;;;;;;5032329;28;20257;-71
2023/10/19 01:49:26;;;;;;;23.83;16.87;;;11.90;99.90;;;;;;5032473;28;20203;-71
2023/10/19 01:51:53;;;;;;;27.10;17.33;;;11.90;99.90;;;;;;5032091;28;20245;-71
2023/10/19 01:54:23;;;;;;;23.63;16.13;;;12.00;99.90;;;;;;5032142;28;20178;-71
2023/10/19 01:56:57;;;;;;;23.10;16.47;;;12.00;99.90;;;;;;5031859;28;20211;-71
2023/10/19 01:59:27;;;;;;;21.70;16.50;;;12.00;99.90;;;;;;5032408;28;20665;-71
2023/10/19 02:01:57;;;;;;;20.23;15.97;;;12.00;99.90;;;;;;5031554;28;20199;-71
2023/10/19 02:04:23;;;;;;;24.93;17.73;;;12.10;99.90;;;;;;5031193;28;20178;-71
2023/10/19 02:06:51;;;;;;;20.17;15.37;;;12.10;99.90;;;;;;5031870;28;20175;-71
2023/10/19 02:09:28;;;;;;;23.73;16.63;;;12.10;99.90;;;;;;5032107;28;20172;-71
2023/10/19 02:11:56;;;;;;;22.40;16.83;;;12.10;99.90;;;;;;5013347;28;20253;-71
2023/10/19 02:14:25;;;;;;;21.60;16.63;;;12.20;99.90;;;;;;5032540;28;20650;-71
2023/10/19 02:16:58;;;;;;;19.83;16.40;;;12.20;99.90;;;;;;5031970;28;20681;-71
2023/10/19 02:19:29;;;;;;;23.40;17.13;;;12.20;99.90;;;;;;5014475;28;20567;-71
2023/10/19 02:22:03;;;;;;;20.67;16.43;;;12.20;99.90;;;;;;5031745;28;20222;-71
2023/10/19 02:24:29;;;;;;;22.93;16.80;;;12.20;99.90;;;;;;5031990;28;20171;-71
2023/10/19 02:26:56;;;;;;;20.67;16.67;;;12.20;99.90;;;;;;5031499;28;20179;-71
2023/10/19 02:29:23;;;;;;;21.70;16.37;;;12.20;99.90;;;;;;5031676;28;20209;-71
2023/10/19 02:31:49;;;;;;;22.93;16.33;;;12.30;99.90;;;;;;5031722;28;20195;-71
2023/10/19 02:34:15;;;;;;;21.93;17.47;;;12.30;99.90;;;;;;5031607;28;20171;-71
2023/10/19 02:36:43;;;;;;;23.40;15.43;;;12.30;99.90;;;;;;5031771;28;20225;-71
2023/10/19 02:39:10;;;;;;;21.80;16.57;;;12.30;99.90;;;;;;5031795;28;20513;-71
2023/10/19 02:41:47;;;;;;;21.47;17.07;;;12.30;99.90;;;;;;5031214;28;20199;-71
2023/10/19 02:46:45;;;;;;;23.00;18.03;;;12.40;99.90;;;;;;5031333;28;20178;-71
2023/10/19 02:49:13;;;;;;;23.23;17.07;;;12.40;99.90;;;;;;5031639;28;20179;-71
2023/10/19 02:51:45;;;;;;;19.33;16.47;;;12.40;99.90;;;;;;5031143;28;20213;-71
2023/10/19 02:54:20;;;;;;;21.83;16.33;;;12.40;99.90;;;;;;5031448;28;20258;-71
2023/10/19 02:56:50;;;;;;;20.63;16.07;;;12.40;99.90;;;;;;5031750;28;20186;-71
2023/10/19 02:59:16;;;;;;;21.53;16.67;;;12.40;99.90;;;;;;5031400;28;20653;-71
2023/10/19 03:01:45;;;;;;;19.83;15.80;;;12.40;99.90;;;;;;5031242;28;20196;-71
2023/10/19 03:04:15;;;;;;;20.50;16.17;;;12.40;99.90;;;;;;5031275;28;20455;-71
2023/10/19 03:06:40;;;;;;;20.40;16.40;;;12.40;99.90;;;;;;5031413;28;20161;-71
2023/10/19 03:09:15;;;;;;;19.50;15.87;;;12.40;99.90;;;;;;5031136;28;20178;-71
2023/10/19 03:11:41;;;;;;;20.67;15.73;;;12.40;99.90;;;;;;5031015;28;20187;-71
2023/10/19 03:14:08;;;;;;;19.13;16.77;;;12.30;99.90;;;;;;5031164;28;20182;-71
2023/10/19 03:16:36;;;;;;;20.00;16.27;;;12.30;99.90;;;;;;5031136;28;20258;-71
2023/10/19 03:19:01;;;;;;;21.00;16.57;;;12.30;99.90;;;;;;5031342;28;20171;-71
2023/10/19 03:21:27;;;;;;;19.90;16.23;;;12.30;99.90;;;;;;5031249;28;20639;-71
2023/10/19 03:24:01;;;;;;;19.80;15.37;;;12.30;99.90;;;;;;5031037;28;20638;-71
2023/10/19 03:26:30;;;;;;;19.30;16.47;;;12.30;99.90;;;;;;5030832;28;20203;-71
2023/10/19 03:28:57;;;;;;;25.13;17.43;;;12.30;99.90;;;;;;5011561;28;20199;-71
2023/10/19 03:31:26;;;;;;;24.60;17.30;;;12.30;99.90;;;;;;5011680;28;20184;-71
2023/10/19 03:33:56;;;;;;;22.97;16.97;;;12.30;99.90;;;;;;5011190;28;20196;-71
2023/10/19 03:36:23;;;;;;;21.03;16.73;;;12.30;99.90;;;;;;5011316;28;20182;-71
2023/10/19 03:38:53;;;;;;;20.37;16.03;;;12.30;99.90;;;;;;5011286;28;20164;-71
2023/10/19 03:41:26;;;;;;;19.73;15.73;;;12.20;99.90;;;;;;5028192;28;20577;-71
2023/10/19 03:43:54;;;;;;;21.37;16.73;;;12.20;99.90;;;;;;5030637;28;20639;-71
2023/10/19 03:46:37;;;;;;;22.90;17.70;;;12.20;99.90;;;;;;5030214;28;20646;-71
2023/10/19 03:49:12;;;;;;;25.07;15.77;;;12.20;99.90;;;;;;5030956;28;20198;-71
2023/10/19 03:51:58;;;;;;;21.57;16.47;;;12.10;99.90;;;;;;5030817;28;20708;-70
2023/10/19 03:54:25;;;;;;;23.30;16.17;;;12.10;99.90;;;;;;5030858;28;20697;-71
2023/10/19 03:56:50;;;;;;;23.33;18.00;;;12.10;99.90;;;;;;5030915;28;20171;-71
2023/10/19 03:59:23;;;;;;;23.10;18.20;;;12.10;99.90;;;;;;5030702;28;20247;-71
2023/10/19 04:01:49;;;;;;;26.47;17.67;;;12.10;99.90;;;;;;5030705;28;20191;-71
2023/10/19 04:04:16;;;;;;;25.17;17.60;;;12.10;99.90;;;;;;5030471;28;20254;-70
2023/10/19 04:06:47;;;;;;;21.77;16.33;;;12.10;99.90;;;;;;5030898;28;20164;-70
2023/10/19 04:09:16;;;;;;;19.30;16.57;;;12.10;99.90;;;;;;5030862;28;20164;-71
2023/10/19 04:11:48;;;;;;;23.00;17.13;;;12.10;99.90;;;;;;5012951;28;20663;-71
2023/10/19 04:14:20;;;;;;;26.10;17.37;;;12.00;99.90;;;;;;5030017;28;20203;-71
2023/10/19 04:16:48;;;;;;;24.33;16.57;;;12.00;99.90;;;;;;5030181;28;20566;-71
2023/10/19 04:19:14;;;;;;;22.43;16.30;;;12.00;99.90;;;;;;5030826;28;20258;-71
2023/10/19 04:21:43;;;;;;;24.30;17.23;;;12.00;99.90;;;;;;5033673;28;20195;-71
2023/10/19 04:24:10;;;;;;;22.27;17.37;;;12.10;99.90;;;;;;5034022;28;20194;-71
2023/10/19 04:26:39;;;;;;;24.73;16.87;;;12.10;99.90;;;;;;5034051;28;20269;-71
2023/10/19 04:29:17;;;;;;;22.00;16.63;;;12.20;99.90;;;;;;5033676;28;20670;-71
2023/10/19 04:31:55;;;;;;;23.93;17.97;;;12.20;99.90;;;;;;5033875;28;20278;-70
2023/10/19 04:34:21;;;;;;;20.37;15.83;;;12.20;99.90;;;;;;5033819;28;20250;-70
2023/10/19 04:36:52;;;;;;;23.87;16.73;;;12.30;99.90;;;;;;5033915;28;20251;-71
2023/10/19 04:39:19;;;;;;;23.20;17.00;;;12.20;99.90;;;;;;5034229;28;20534;-71
2023/10/19 04:41:48;;;;;;;23.30;16.00;;;12.30;99.90;;;;;;5033840;28;20183;-71
2023/10/19 04:44:15;;;;;;;24.83;16.60;;;12.30;99.90;;;;;;5033273;28;20229;-71
2023/10/19 04:46:41;;;;;;;22.03;15.83;;;12.30;99.90;;;;;;5015757;28;20186;-71
2023/10/19 04:49:07;;;;;;;20.40;14.83;;;12.30;99.90;;;;;;5033734;28;20189;-71
2023/10/19 04:51:34;;;;;;;23.17;16.60;;;12.30;99.90;;;;;;5033764;28;20191;-71
2023/10/19 04:54:00;;;;;;;20.77;16.27;;;12.30;99.90;;;;;;5015622;28;20185;-71
2023/10/19 04:56:25;;;;;;;20.40;17.00;;;12.30;99.90;;;;;;5033486;28;20179;-71
2023/10/19 04:58:52;;;;;;;20.50;15.37;;;12.30;99.90;;;;;;5033238;28;20716;-71
2023/10/19 05:01:18;;;;;;;25.57;16.20;;;12.40;99.90;;;;;;5033486;28;20203;-71
2023/10/19 05:03:44;;;;;;;24.10;16.33;;;12.30;99.90;;;;;;5033438;28;20176;-71
2023/10/19 05:06:09;;;;;;;20.73;15.07;;;12.30;99.90;;;;;;5033167;28;20242;-71
2023/10/19 05:08:36;;;;;;;22.13;16.13;;;12.40;99.90;;;;;;5033601;28;20800;-71
2023/10/19 05:11:02;;;;;;;21.00;15.03;;;12.40;99.90;;;;;;5033301;28;20607;-71
2023/10/19 05:13:28;;;;;;;20.80;14.93;;;12.40;99.90;;;;;;5032951;28;20650;-71
2023/10/19 05:15:54;;;;;;;19.73;14.40;;;12.40;99.90;;;;;;5032965;28;20174;-71
2023/10/19 05:18:21;;;;;;;19.37;15.40;;;12.50;99.90;;;;;;5032941;28;20648;-71
2023/10/19 05:20:47;;;;;;;20.37;15.43;;;12.50;99.90;;;;;;5032925;28;20253;-71
2023/10/19 05:23:15;;;;;;;20.30;15.07;;;12.50;99.90;;;;;;5032858;28;20179;-71
2023/10/19 05:25:41;;;;;;;20.60;16.30;;;12.50;99.90;;;;;;5032652;28;20278;-71
2023/10/19 05:28:07;;;;;;;20.40;14.87;;;12.50;99.90;;;;;;5032320;28;20266;-71
2023/10/19 05:30:35;;;;;;;20.57;16.10;;;12.50;99.90;;;;;;5014703;28;20614;-71
2023/10/19 05:33:03;;;;;;;17.30;14.70;;;12.50;99.90;;;;;;5032522;28;20168;-71
2023/10/19 05:35:30;;;;;;;25.90;15.23;;;12.60;99.90;;;;;;5032246;28;20176;-71
2023/10/19 05:37:56;;;;;;;19.17;14.27;;;12.60;99.90;;;;;;5032323;28;20210;-71
2023/10/19 05:40:29;;;;;;;19.17;13.80;;;12.60;99.90;;;;;;5014708;28;20203;-71
2023/10/19 05:43:00;;;;;;;17.57;13.93;;;12.60;99.90;;;;;;5032089;28;20178;-71
2023/10/19 05:45:26;;;;;;;19.00;14.83;;;12.60;99.90;;;;;;5032471;28;20210;-71
2023/10/19 05:47:52;;;;;;;18.37;14.17;;;12.60;99.90;;;;;;5032324;28;20175;-71
2023/10/19 05:50:17;;;;;;;19.47;13.53;;;12.60;99.90;;;;;;5014237;28;20552;-71
2023/10/19 05:52:43;;;;;;;16.07;12.60;;;12.70;99.90;;;;;;5032414;28;20163;-71
2023/10/19 05:55:10;;;;;;;19.63;13.90;;;12.70;99.90;;;;;;5032232;28;20191;-71
2023/10/19 05:57:40;;;;;;;20.03;14.57;;;12.70;99.90;;;;;;5032019;28;20178;-71
2023/10/19 06:00:07;;;;;;;15.97;12.97;;;12.70;99.90;;;;;;5031507;28;20184;-71
2023/10/19 06:02:32;;;;;;;21.10;13.57;;;12.70;99.90;;;;;;5030895;28;20174;-71
2023/10/19 06:04:58;;;;;;;18.03;12.47;;;12.70;99.90;;;;;;5031597;28;20191;-71
2023/10/19 06:07:24;;;;;;;19.60;12.43;;;12.80;99.90;;;;;;5014116;28;20167;-71
2023/10/19 06:09:50;;;;;;;14.20;11.77;;;12.80;99.90;;;;;;5031857;28;20189;-71
2023/10/19 06:12:16;;;;;;;19.63;12.23;;;12.80;99.90;;;;;;5031635;28;20693;-71
2023/10/19 06:14:41;;;;;;;17.30;11.63;;;12.80;99.90;;;;;;5031381;28;20182;-71
2023/10/19 06:17:07;;;;;;;13.57;11.97;;;12.80;99.90;;;;;;5030875;28;20198;-71
2023/10/19 06:19:33;;;;;;;15.53;12.70;;;12.80;99.90;;;;;;5031763;28;20183;-71
2023/10/19 06:21:59;;;;;;;17.20;12.47;;;12.80;99.90;;;;;;5031545;28;20235;-72
2023/10/19 06:24:25;;;;;;;20.80;12.13;;;12.90;99.90;;;;;;5031318;28;20187;-71
2023/10/19 06:26:52;;;;;;;14.23;12.00;;;12.90;99.90;;;;;;5031490;28;20546;-71
2023/10/19 06:29:18;;;;;;;14.73;11.63;;;12.90;99.90;;;;;;5031852;28;20637;-71
2023/10/19 06:31:43;;;;;;;18.73;12.03;;;13.00;99.90;;;;;;5031372;28;20245;-71
2023/10/19 06:34:10;;;;;;;15.53;12.37;;;13.00;99.90;;;;;;5030996;28;20184;-71
2023/10/19 06:36:36;;;;;;;13.37;11.97;;;13.00;99.90;;;;;;5031523;28;20186;-71
2023/10/19 06:39:05;;;;;;;17.33;12.47;;;13.00;99.90;;;;;;5030619;28;20187;-71
2023/10/19 06:41:31;;;;;;;15.00;11.90;;;13.00;99.90;;;;;;5013339;28;20210;-71
2023/10/19 06:43:58;;;;;;;18.83;13.57;;;13.00;99.90;;;;;;5029940;28;20187;-71
2023/10/19 06:46:24;;;;;;;15.27;12.50;;;13.00;99.90;;;;;;5031115;28;20214;-71
2023/10/19 06:48:51;;;;;;;18.57;12.20;;;13.00;99.90;;;;;;5013613;28;20175;-70
2023/10/19 06:51:16;;;;;;;21.80;13.57;;;13.10;99.90;;;;;;5013535;28;20199;-71
2023/10/19 06:53:42;;;;;;;14.67;12.93;;;13.10;99.90;;;;;;5031150;28;20173;-71
2023/10/19 06:56:08;;;;;;;14.83;12.60;;;13.10;99.90;;;;;;5030099;28;20186;-71
2023/10/19 06:58:34;;;;;;;16.90;12.87;;;13.20;99.90;;;;;;5030464;28;20191;-71
2023/10/19 07:01:05;;;;;;;16.47;12.73;;;13.20;99.90;;;;;;5031094;28;20291;-71
2023/10/19 07:03:30;;;;;;;20.70;12.87;;;13.20;99.90;;;;;;5030901;28;20274;-71
2023/10/19 07:05:58;;;;;;;17.43;12.60;;;13.30;99.90;;;;;;5030770;28;20625;-71
2023/10/19 07:08:23;;;;;;;14.37;12.43;;;13.30;99.90;;;;;;5030980;28;20195;-70
2023/10/19 07:10:52;;;;;;;16.03;13.40;;;13.40;99.90;;;;;;5030957;28;20302;-70
2023/10/19 07:13:18;;;;;;;14.93;12.90;;;13.40;99.90;;;;;;5030369;28;20175;-70
2023/10/19 07:15:49;;;;;;;16.97;12.40;;;13.40;99.90;;;;;;5030227;28;20183;-71
2023/10/19 07:18:15;;;;;;;14.73;11.33;;;13.50;99.90;;;;;;5030774;28;20249;-70
2023/10/19 07:20:42;;;;;;;17.67;12.20;;;13.50;99.90;;;;;;5031015;28;20195;-71
2023/10/19 07:23:26;;;;;;;17.00;12.40;;;13.60;99.90;;;;;;5030834;28;20183;-71
2023/10/19 07:25:54;;;;;;;15.20;11.77;;;13.60;99.90;;;;;;5029886;28;20294;-71
2023/10/19 07:28:21;;;;;;;18.43;12.47;;;13.70;99.90;;;;;;5030136;28;20553;-71
2023/10/19 07:30:47;;;;;;;17.27;11.47;;;13.70;99.90;;;;;;5031105;28;20223;-71
2023/10/19 07:33:17;;;;;;;17.60;11.27;;;13.70;99.90;;;;;;5013147;28;20256;-70
2023/10/19 07:35:43;;;;;;;17.27;12.53;;;13.80;99.90;;;;;;5030946;28;20266;-71
2023/10/19 07:38:09;;;;;;;14.60;11.53;;;13.80;99.90;;;;;;5030660;28;20172;-70
2023/10/19 07:40:35;;;;;;;16.37;12.17;;;13.90;99.90;;;;;;5030587;28;20556;-70
2023/10/19 07:43:03;;;;;;;19.90;11.63;;;13.90;99.90;;;;;;5013032;28;20665;-70
2023/10/19 07:45:31;;;;;;;15.50;12.17;;;14.00;99.90;;;;;;5030424;28;20211;-70
2023/10/19 07:47:57;;;;;;;18.03;11.90;;;14.00;99.90;;;;;;5030926;28;20183;-70
2023/10/19 07:50:22;;;;;;;16.57;10.93;;;14.20;99.90;;;;;;5030610;28;20195;-70
2023/10/19 07:52:51;;;;;;;19.63;11.37;;;14.20;99.90;;;;;;5031015;28;20167;-70
2023/10/19 07:55:17;;;;;;;16.00;10.83;;;14.20;99.90;;;;;;5033055;28;20221;-70
2023/10/19 07:57:44;;;;;;;17.37;11.33;;;14.20;99.90;;;;;;5034538;28;20631;-70
2023/10/19 08:00:13;;;;;;;11.97;10.63;;;14.20;99.90;;;;;;5034182;28;20186;-70
2023/10/19 08:02:41;;;;;;;13.30;11.07;;;14.30;99.90;;;;;;5034249;28;20250;-70
2023/10/19 08:05:08;;;;;;;13.77;10.57;;;14.40;99.90;;;;;;5034144;28;20196;-71
2023/10/19 08:07:37;;;;;;;12.67;10.63;;;14.50;99.90;;;;;;5034390;28;20179;-70
2023/10/19 08:10:05;;;;;;;12.53;10.40;;;14.50;99.90;;;;;;5034309;28;20179;-70
2023/10/19 08:12:32;;;;;;;13.97;10.10;;;14.70;99.90;;;;;;5016219;28;20275;-70
2023/10/19 08:14:59;;;;;;;12.07;10.17;;;14.80;99.90;;;;;;5034031;28;20175;-70
2023/10/19 08:17:24;;;;;;;12.60;10.47;;;14.90;99.90;;;;;;5034125;28;20585;-71
2023/10/19 08:19:50;;;;;;;14.33;9.73;;;14.90;99.90;;;;;;5016144;28;20187;-70
2023/10/19 08:22:16;;;;;;;12.03;9.10;;;15.00;99.90;;;;;;5015671;28;20214;-70
2023/10/19 08:24:43;;;;;;;9.97;8.77;;;15.00;99.90;;;;;;5033043;28;20176;-70
2023/10/19 08:27:10;;;;;;;10.97;9.20;;;15.10;99.90;;;;;;5033495;28;20243;-70
2023/10/19 08:29:37;;;;;;;11.13;8.77;;;15.10;99.90;;;;;;5033724;28;20210;-70
2023/10/19 08:32:02;;;;;;;12.27;8.80;;;15.20;99.90;;;;;;5033761;28;20230;-70
2023/10/19 08:34:29;;;;;;;11.10;8.97;;;15.40;99.90;;;;;;5033071;28;20176;-70
2023/10/19 08:36:55;;;;;;;12.10;9.17;;;15.40;99.90;;;;;;5033759;28;20202;-70
2023/10/19 08:39:21;;;;;;;10.13;8.07;;;15.50;99.90;;;;;;5033632;28;20175;-70
2023/10/19 08:41:51;;;;;;;9.70;7.90;;;15.60;99.90;;;;;;5034057;28;20561;-71
2023/10/19 08:44:17;;;;;;;8.70;7.63;;;15.70;99.90;;;;;;5033728;28;20272;-70
2023/10/19 08:46:44;;;;;;;10.20;7.87;;;16.10;99.90;;;;;;5033612;28;20722;-70
2023/10/19 08:49:16;;;;;;;6.63;5.93;;;16.90;99.90;;;;;;5033412;28;20534;-70
2023/10/19 08:51:46;;;;;;;7.13;5.20;;;17.90;99.90;;;;;;5031936;28;20199;-70
2023/10/19 08:54:13;;;;;;;7.18;5.03;;;18.90;99.90;;;;;;5032924;28;20236;-70
2023/10/19 08:56:44;;;;;;;5.70;4.80;;;19.70;99.90;;;;;;5033265;28;20176;-70
2023/10/19 08:59:15;;;;;;;5.07;4.55;;;20.60;99.90;;;;;;5033365;28;20186;-71
2023/10/19 09:01:43;;;;;;;7.95;4.93;;;21.10;99.90;;;;;;5033274;28;20203;-70
2023/10/19 09:04:10;;;;;;;5.03;4.15;;;21.40;99.90;;;;;;5032708;28;20183;-70
2023/10/19 09:06:41;;;;;;;6.93;4.47;;;21.70;99.90;;;;;;5031563;28;20539;-71
2023/10/19 09:09:09;;;;;;;6.25;3.78;;;22.20;99.90;;;;;;5032936;28;20183;-71
2023/10/19 09:11:35;;;;;;;6.82;3.58;;;22.50;99.90;;;;;;5033197;28;20190;-70
2023/10/19 09:14:03;;;;;;;4.65;3.58;;;22.90;99.90;;;;;;5032815;28;20186;-70
2023/10/19 09:16:30;;;;;;;6.25;4.15;;;23.40;99.90;;;;;;5031815;28;20234;-71
2023/10/19 09:18:58;;;;;;;7.80;4.28;;;23.50;99.90;;;;;;5031291;28;20692;-71
2023/10/19 09:21:28;;;;;;;6.38;3.85;;;23.60;99.90;;;;;;5032465;28;20231;-71
2023/10/19 09:23:55;;;;;;;4.88;3.45;;;23.60;99.90;;;;;;5014882;28;20179;-70
2023/10/19 09:26:22;;;;;;;4.30;3.00;;;23.20;99.90;;;;;;5014307;28;20215;-70
2023/10/19 09:28:50;;;;;;;9.32;3.92;;;22.70;99.90;;;;;;5033314;28;20203;-70
2023/10/19 09:31:17;;;;;;;6.93;3.30;;;22.10;99.90;;;;;;5030829;28;20183;-70
2023/10/19 09:33:47;;;;;;;8.35;4.05;;;21.70;99.90;;;;;;5032411;28;20653;-70
2023/10/19 09:36:13;;;;;;;5.82;3.35;;;21.60;99.90;;;;;;5014865;28;20179;-70
2023/10/19 09:38:52;;;;;;;6.70;3.45;;;21.70;99.90;;;;;;5032499;28;20167;-70
2023/10/19 09:41:20;;;;;;;8.38;3.90;;;22.10;99.90;;;;;;5032261;28;20860;-70
2023/10/19 09:43:50;;;;;;;5.03;2.70;;;22.50;99.90;;;;;;5032686;28;20175;-70
2023/10/19 09:46:22;;;;;;;7.00;3.08;;;22.80;99.90;;;;;;5032254;28;20302;-70
2023/10/19 09:48:49;;;;;;;8.23;3.90;;;23.00;99.90;;;;;;5032333;28;20183;-70
2023/10/19 09:51:17;;;;;;;6.20;3.30;;;23.10;99.90;;;;;;5032419;28;20218;-70
2023/10/19 09:53:49;;;;;;;6.20;3.47;;;23.00;99.90;;;;;;5032470;28;20190;-69
2023/10/19 09:56:23;;;;;;;5.65;2.90;;;22.70;99.90;;;;;;5032292;28;20187;-70
2023/10/19 09:58:53;;;;;;;3.55;3.00;;;22.20;99.90;;;;;;5014499;28;20179;-70
2023/10/19 10:01:21;;;;;;;5.32;3.65;;;21.80;99.90;;;;;;5032427;28;20198;-70
2023/10/19 10:03:53;;;;;;;9.70;4.03;;;21.50;99.90;;;;;;5032259;28;20167;-70
2023/10/19 10:06:29;;;;;;;5.77;2.93;;;21.30;99.90;;;;;;5031696;28;20198;-70
2023/10/19 10:08:56;;;;;;;5.72;3.17;;;21.20;99.90;;;;;;5032079;28;20171;-70
2023/10/19 10:11:26;;;;;;;7.80;3.58;;;21.10;99.90;;;;;;5032107;28;20187;-70
2023/10/19 10:13:53;;;;;;;6.10;3.50;;;21.10;99.90;;;;;;5032039;28;20164;-70
2023/10/19 10:16:21;;;;;;;4.93;3.03;;;21.10;99.90;;;;;;5031939;28;20513;-70
2023/10/19 10:18:50;;;;;;;4.78;3.03;;;20.80;99.90;;;;;;5031871;28;20257;-70
2023/10/19 10:21:18;;;;;;;5.60;3.50;;;20.70;99.90;;;;;;5031800;28;20200;-69
2023/10/19 10:23:56;;;;;;;7.10;2.83;;;20.60;99.90;;;;;;5031418;28;20594;-69
2023/10/19 10:26:26;;;;;;;8.48;3.10;;;20.60;99.90;;;;;;5031056;28;20222;-70
2023/10/19 10:29:13;;;;;;;8.13;3.20;;;20.70;99.90;;;;;;5014075;28;20202;-70
2023/10/19 10:31:46;;;;;;;6.95;3.67;;;21.00;99.90;;;;;;5031593;28;20187;-70
2023/10/19 10:34:31;;;;;;;9.20;3.78;;;21.50;99.90;;;;;;5030579;28;20673;-69
2023/10/19 10:37:02;;;;;;;7.72;3.13;;;21.90;99.90;;;;;;5013993;28;20658;-69
2023/10/19 10:39:28;;;;;;;6.60;2.85;;;22.00;99.90;;;;;;5031679;28;20196;-70
2023/10/19 10:42:05;;;;;;;5.97;2.92;;;21.80;99.90;;;;;;5013613;28;20191;-69
2023/10/19 10:44:39;;;;;;;6.88;3.85;;;21.70;99.90;;;;;;5031132;28;20199;-69
2023/10/19 10:47:18;;;;;;;8.50;3.70;;;21.60;99.90;;;;;;5031348;28;20289;-72
2023/10/19 10:49:55;;;;;;;5.35;3.20;;;21.40;99.90;;;;;;5031265;28;20186;-70
2023/10/19 10:52:24;;;;;;;7.93;3.72;;;21.30;99.90;;;;;;5030596;28;20577;-70
2023/10/19 10:54:49;;;;;;;6.18;3.33;;;21.30;99.90;;;;;;5031136;28;20226;-70
2023/10/19 10:57:16;;;;;;;4.63;3.13;;;21.30;99.90;;;;;;5031342;28;20688;-70
2023/10/19 10:59:41;;;;;;;9.23;3.25;;;21.20;99.90;;;;;;5013074;28;20175;-70
2023/10/19 11:02:21;;;;;;;4.88;3.08;;;21.20;99.90;;;;;;5013374;28;20202;-71
2023/10/19 11:04:47;;;;;;;6.03;3.15;;;21.20;99.90;;;;;;5012746;28;20812;-70
2023/10/19 11:07:20;;;;;;;5.60;2.42;;;21.00;99.90;;;;;;5030993;28;20313;-70
2023/10/19 11:09:48;;;;;;;4.60;2.78;;;20.80;99.90;;;;;;5031215;28;20179;-70
2023/10/19 11:12:19;;;;;;;10.63;3.30;;;20.70;99.90;;;;;;5030827;28;20193;-70
2023/10/19 11:14:54;;;;;;;9.18;3.08;;;20.70;99.90;;;;;;5030769;28;20190;-70
2023/10/19 11:17:27;;;;;;;4.97;3.53;;;20.60;99.90;;;;;;5030735;28;20617;-70
2023/10/19 11:19:56;;;;;;;8.43;3.40;;;20.60;99.90;;;;;;5030528;28;20334;-70
2023/10/19 11:22:21;;;;;;;7.05;3.15;;;20.60;99.90;;;;;;5030898;28;20187;-70
2023/10/19 11:24:48;;;;;;;5.75;3.55;;;20.60;99.90;;;;;;5030871;28;20171;-70
2023/10/19 11:27:26;;;;;;;8.63;3.63;;;20.50;99.90;;;;;;5013309;28;20183;-70
2023/10/19 11:29:59;;;;;;;5.78;2.88;;;20.40;99.90;;;;;;5033256;28;20547;-70
2023/10/19 11:32:38;;;;;;;5.50;3.25;;;20.40;99.90;;;;;;5034870;28;20259;-69
2023/10/19 11:35:03;;;;;;;6.13;3.27;;;20.30;99.90;;;;;;5034468;28;20510;-70
2023/10/19 11:37:29;;;;;;;7.07;2.87;;;20.30;99.90;;;;;;5035024;28;20175;-69
2023/10/19 11:39:55;;;;;;;8.30;3.03;;;20.20;99.90;;;;;;5034191;28;20223;-69
2023/10/19 11:42:20;;;;;;;5.00;2.77;;;20.20;99.90;;;;;;5034493;28;20209;-69
2023/10/19 11:44:46;;;;;;;6.70;3.10;;;20.20;99.90;;;;;;5034412;28;20214;-70
2023/10/19 11:47:15;;;;;;;6.00;2.83;;;20.20;99.90;;;;;;5034920;28;20167;-70
2023/10/19 11:49:41;;;;;;;6.15;2.88;;;20.20;99.90;;;;;;5017031;28;20180;-70
2023/10/19 11:52:07;;;;;;;6.40;2.90;;;20.20;99.90;;;;;;5016630;28;20265;-69
2023/10/19 11:54:33;;;;;;;6.78;2.83;;;20.20;99.90;;;;;;5034530;28;20660;-70
2023/10/19 11:56:59;;;;;;;5.70;3.03;;;20.20;99.90;;;;;;5034673;28;20175;-70
2023/10/19 11:59:26;;;;;;;6.77;2.67;;;20.20;99.90;;;;;;5034729;28;20468;-70
2023/10/19 12:01:52;;;;;;;3.17;2.50;;;20.10;99.90;;;;;;5034210;28;20192;-69
2023/10/19 12:04:17;;;;;;;7.47;2.83;;;20.10;99.90;;;;;;5034332;28;20229;-72
2023/10/19 12:06:45;;;;;;;7.72;3.40;;;20.00;99.90;;;;;;5034416;28;20211;-69
2023/10/19 12:09:14;;;;;;;5.80;2.63;;;19.90;99.90;;;;;;5034332;28;20171;-69
2023/10/19 12:11:47;;;;;;;4.75;2.55;;;19.90;99.90;;;;;;5034320;28;20198;-69
2023/10/19 12:14:14;;;;;;;7.22;2.88;;;20.00;99.90;;;;;;5016524;28;20366;-69
2023/10/19 12:16:40;;;;;;;4.93;2.60;;;19.90;99.90;;;;;;5034081;28;20544;-69
2023/10/19 12:19:07;;;;;;;5.40;2.67;;;19.90;99.90;;;;;;5034122;28;20273;-70
2023/10/19 12:21:33;;;;;;;5.23;2.70;;;19.90;99.90;;;;;;5034176;28;20195;-70
2023/10/19 12:24:01;;;;;;;6.60;3.07;;;19.70;99.90;;;;;;5034162;28;20718;-69
2023/10/19 12:26:26;;;;;;;5.40;3.00;;;19.60;99.90;;;;;;5033591;28;20218;-69
2023/10/19 12:28:52;;;;;;;6.37;2.80;;;19.50;99.90;;;;;;5033889;28;20176;-70
2023/10/19 12:31:18;;;;;;;5.97;2.90;;;19.30;99.90;;;;;;5016131;28;20202;-69
2023/10/19 12:33:44;;;;;;;8.93;2.97;;;19.10;99.90;;;;;;5033917;28;20174;-69
2023/10/19 12:38:55;;;;;;;8.67;3.10;;;18.90;99.90;;;;;;5033817;28;20186;-70
2023/10/19 12:41:21;;;;;;;6.70;2.80;;;18.80;99.90;;;;;;5032558;28;20618;-72
2023/10/19 12:43:47;;;;;;;7.80;3.23;;;18.70;99.90;;;;;;5033781;28;20183;-70
2023/10/19 12:46:14;;;;;;;10.20;3.67;;;18.70;99.90;;;;;;5033463;28;20203;-70
2023/10/19 12:48:41;;;;;;;6.63;3.87;;;18.60;99.90;;;;;;5033583;28;20179;-70
2023/10/19 12:51:07;;;;;;;3.27;2.93;;;18.60;99.90;;;;;;5015515;28;20591;-69